Time;durP1;ratioP1;P1;durP2;ratioP2;P2;SDS_P1;SDS_P2;PMS_P1;PMS_P2;Temp;Humidity;BMP_temperature;BMP_pressure;BME280_temperature;BME280_humidity;BME280_pressure;Samples;Min_cycle;Max_cycle;Signal;HPM_P1;HPM_P2
2023/01/06 00:01:01;;;;;;;;;1.00;1.00;;;;;12.55;71.74;101583.97;5018945;28;56889;-64
2023/01/06 00:03:26;;;;;;;;;0.67;0.00;;;;;12.46;71.34;101565.72;5019935;28;45658;-64
2023/01/06 00:05:56;;;;;;;;;0.00;0.00;;;;;12.38;71.36;101558.13;5037478;28;46119;-64
2023/01/06 00:08:22;;;;;;;;;1.00;1.00;;;;;12.42;71.85;101581.03;5019857;28;45439;-65
2023/01/06 00:10:47;;;;;;;;;0.00;0.00;;;;;12.39;71.75;101575.84;5037720;28;45290;-66
2023/01/06 00:13:13;;;;;;;;;1.00;0.00;;;;;12.38;71.70;101580.31;5020209;28;45387;-64
2023/01/06 00:15:38;;;;;;;;;2.00;0.00;;;;;12.29;71.98;101570.09;4999908;28;47108;-65
2023/01/06 00:18:03;;;;;;;;;0.00;0.00;;;;;12.37;72.24;101577.72;5018550;28;45206;-64
2023/01/06 00:20:29;;;;;;;;;0.67;0.67;;;;;12.28;72.10;101563.03;5017694;28;45217;-63
2023/01/06 00:22:54;;;;;;;;;0.00;0.00;;;;;12.27;72.13;101576.44;5017845;28;45434;-64
2023/01/06 00:25:19;;;;;;;;;0.33;0.33;;;;;12.38;72.71;101585.66;5017369;28;46044;-64
2023/01/06 00:27:45;;;;;;;;;0.00;0.00;;;;;12.40;72.75;101594.44;5016444;28;45344;-65
2023/01/06 00:30:11;;;;;;;;;0.00;0.00;;;;;12.30;72.61;101570.94;4999793;28;45263;-65
2023/01/06 00:32:37;;;;;;;;;0.00;0.00;;;;;12.33;72.42;101579.66;5018606;28;45368;-66
2023/01/06 00:35:03;;;;;;;;;0.00;0.00;;;;;12.28;72.45;101572.81;5018371;28;46067;-64
2023/01/06 00:37:28;;;;;;;;;0.33;0.33;;;;;12.35;72.52;101591.13;5017384;28;45371;-65
2023/01/06 00:39:54;;;;;;;;;2.00;0.00;;;;;12.27;72.70;101577.28;5017933;28;45387;-65
2023/01/06 00:42:21;;;;;;;;;0.33;0.33;;;;;12.30;72.70;101587.81;5017268;28;45351;-65
2023/01/06 00:44:46;;;;;;;;;3.00;0.00;;;;;12.32;73.13;101580.59;5016722;28;45982;-65
2023/01/06 00:47:13;;;;;;;;;0.00;0.00;;;;;12.33;72.67;101584.13;5016639;28;45421;-65
2023/01/06 00:49:38;;;;;;;;;0.33;0.33;;;;;12.25;72.95;101573.84;4999717;28;45465;-64
2023/01/06 00:52:04;;;;;;;;;0.00;0.00;;;;;12.25;72.87;101573.84;5017525;28;45325;-66
2023/01/06 00:54:29;;;;;;;;;0.00;0.00;;;;;12.28;73.05;101588.81;5016931;28;46157;-66
2023/01/06 00:56:56;;;;;;;;;0.67;0.00;;;;;12.26;73.01;101594.25;5016648;28;45237;-66
2023/01/06 00:59:24;;;;;;;;;0.00;0.00;;;;;12.27;73.30;101593.31;5017274;28;45239;-65
2023/01/06 01:01:51;;;;;;;;;2.33;1.00;;;;;12.32;73.38;101596.59;5017143;28;45415;-64
2023/01/06 01:04:17;;;;;;;;;0.00;0.00;;;;;12.27;73.33;101609.31;5015918;28;45355;-64
2023/01/06 01:06:44;;;;;;;;;0.00;0.00;;;;;12.25;73.64;101599.66;4998900;28;45387;-65
2023/01/06 01:09:13;;;;;;;;;0.00;0.00;;;;;12.26;73.79;101596.91;5017151;28;45243;-64
2023/01/06 01:14:23;;;;;;;;;0.00;0.00;;;;;12.19;73.76;101592.78;5036449;28;45322;-65
2023/01/06 01:16:49;;;;;;;;;0.00;0.00;;;;;12.22;74.08;101589.97;5017259;28;45375;-66
2023/01/06 01:19:16;;;;;;;;;0.00;0.00;;;;;12.18;74.26;101593.72;5016769;28;45450;-64
2023/01/06 01:21:41;;;;;;;;;0.00;0.00;;;;;12.12;75.00;101580.69;5016714;28;45341;-64
2023/01/06 01:24:10;;;;;;;;;0.00;0.00;;;;;12.14;74.97;101586.81;4998802;28;45304;-63
2023/01/06 01:26:35;;;;;;;;;0.00;0.00;;;;;12.16;75.44;101579.59;5017074;28;45800;-65
2023/01/06 01:29:01;;;;;;;;;0.00;0.00;;;;;12.14;75.38;101584.16;5016606;28;45408;-65
2023/01/06 01:31:30;;;;;;;;;1.33;1.00;;;;;12.09;75.62;101572.81;4999219;28;45238;-66
2023/01/06 01:33:55;;;;;;;;;0.00;0.00;;;;;11.88;75.19;101534.72;4999013;28;45637;-64
2023/01/06 01:36:20;;;;;;;;;0.00;0.00;;;;;12.15;75.84;101577.88;4998282;28;45699;-64
2023/01/06 01:38:48;;;;;;;;;0.33;0.00;;;;;12.14;75.34;101569.94;5016455;28;45788;-66
2023/01/06 01:41:17;;;;;;;;;0.00;0.00;;;;;12.12;75.75;101572.69;5016438;28;45480;-65
2023/01/06 01:43:52;;;;;;;;;1.00;0.00;;;;;12.05;76.41;101571.22;5015911;28;45421;-65
2023/01/06 01:46:25;;;;;;;;;0.00;0.00;;;;;12.08;76.18;101560.41;5016765;28;45498;-65
2023/01/06 01:48:53;;;;;;;;;0.00;0.00;;;;;12.08;76.60;101553.28;5016456;28;45545;-65
2023/01/06 01:51:26;;;;;;;;;0.00;0.00;;;;;12.03;76.26;101538.44;5016338;28;45394;-64
2023/01/06 01:53:55;;;;;;;;;0.00;0.00;;;;;12.11;76.36;101560.28;4998162;28;48362;-65
2023/01/06 01:56:25;;;;;;;;;1.00;0.00;;;;;12.01;76.53;101559.00;5015981;28;45375;-64
2023/01/06 01:59:05;;;;;;;;;1.00;0.00;;;;;12.03;76.54;101567.78;5016217;28;45332;-63
2023/01/06 02:01:31;;;;;;;;;0.00;0.00;;;;;12.04;76.23;101559.69;4998763;28;45412;-64
2023/01/06 02:03:58;;;;;;;;;0.33;0.33;;;;;12.03;76.69;101562.44;4998788;28;45281;-64
2023/01/06 02:06:25;;;;;;;;;0.00;0.00;;;;;12.01;76.58;101565.19;5016800;28;45359;-64
2023/01/06 02:09:22;;;;;;;;;0.00;0.00;;;;;12.00;76.58;101557.25;5017994;28;45249;-65
2023/01/06 02:11:50;;;;;;;;;0.00;0.00;;;;;11.95;76.48;101543.25;5019808;28;45367;-64
2023/01/06 02:14:18;;;;;;;;;0.00;0.00;;;;;12.01;76.23;101553.66;5018996;28;46302;-62
2023/01/06 02:17:05;;;;;;;;;0.00;0.00;;;;;11.98;76.55;101556.44;5019338;28;45443;-64
2023/01/06 02:19:33;;;;;;;;;0.00;0.00;;;;;11.94;76.65;101555.72;5019259;28;45254;-66
2023/01/06 02:22:20;;;;;;;;;0.00;0.00;;;;;11.99;76.41;101555.53;5019727;28;45340;-64
2023/01/06 02:24:57;;;;;;;;;0.00;0.00;;;;;12.01;76.11;101564.31;5019518;28;46383;-65
2023/01/06 02:28:20;;;;;;;;;0.67;0.00;;;;;12.01;76.29;101564.31;5019411;28;45524;-65
2023/01/06 02:31:23;;;;;;;;;0.00;0.00;;;;;12.01;75.90;101556.31;4919437;28;45395;-65
2023/01/06 02:34:09;;;;;;;;;0.00;0.00;;;;;11.99;76.16;101563.53;4919121;28;45766;-64
2023/01/06 02:36:44;;;;;;;;;0.00;0.00;;;;;11.91;76.46;101561.22;5017688;28;46346;-64
2023/01/06 02:39:13;;;;;;;;;0.00;0.00;;;;;11.92;76.32;101556.75;5018999;28;45320;-63
2023/01/06 02:41:45;;;;;;;;;0.00;0.00;;;;;11.88;76.89;101553.38;5019418;28;45499;-65
2023/01/06 02:44:10;;;;;;;;;0.00;0.00;;;;;11.93;76.52;101550.47;5018998;28;45450;-64
2023/01/06 02:47:01;;;;;;;;;0.00;0.00;;;;;11.91;76.88;101541.69;5000939;28;45486;-64
2023/01/06 02:50:02;;;;;;;;;0.00;0.00;;;;;11.90;76.78;101542.63;5019030;28;45231;-64
2023/01/06 02:52:45;;;;;;;;;0.00;0.00;;;;;11.89;76.95;101532.91;5018880;28;45311;-64
2023/01/06 02:55:28;;;;;;;;;1.00;0.00;;;;;11.88;77.10;101529.38;5019379;28;45419;-65
2023/01/06 02:58:09;;;;;;;;;1.00;0.00;;;;;11.92;77.12;101522.94;5017816;28;45450;-65
2023/01/06 03:00:44;;;;;;;;;0.00;0.00;;;;;11.88;77.12;101502.72;5018964;28;45345;-65
2023/01/06 03:03:14;;;;;;;;;0.00;0.00;;;;;11.90;77.46;101518.63;5000921;28;45319;-64
2023/01/06 03:05:42;;;;;;;;;0.00;0.00;;;;;11.86;77.55;101511.72;5019055;28;45510;-65
2023/01/06 03:08:13;;;;;;;;;0.00;0.00;;;;;11.79;77.44;101489.81;5018375;28;45339;-64
2023/01/06 03:10:43;;;;;;;;;0.00;0.00;;;;;11.91;76.76;101521.22;5018680;28;45450;-65
2023/01/06 03:13:16;;;;;;;;;0.00;0.00;;;;;11.82;77.20;101501.19;5035343;28;45267;-64
2023/01/06 03:15:41;;;;;;;;;4.00;0.33;;;;;11.79;77.40;101498.66;5020717;28;45622;-64
2023/01/06 03:18:07;;;;;;;;;0.00;0.00;;;;;11.82;77.58;101514.50;5038164;28;45599;-66
2023/01/06 03:20:33;;;;;;;;;0.00;0.00;;;;;11.82;77.40;101509.19;5037099;28;45423;-64
2023/01/06 03:22:59;;;;;;;;;0.00;0.00;;;;;11.85;77.19;101523.28;5038478;28;45175;-65
2023/01/06 03:25:24;;;;;;;;;0.00;0.00;;;;;11.85;77.22;101523.28;5038692;28;45613;-63
2023/01/06 03:27:50;;;;;;;;;0.00;0.00;;;;;11.77;77.18;101518.31;5037999;28;45489;-64
2023/01/06 03:30:16;;;;;;;;;0.00;0.00;;;;;11.83;77.47;101518.03;5038792;28;45379;-65
2023/01/06 03:33:00;;;;;;;;;0.00;0.00;;;;;11.89;77.24;101516.91;5038902;28;45331;-65
2023/01/06 03:35:51;;;;;;;;;1.00;1.00;;;;;11.87;77.12;101518.78;5038849;28;45299;-65
2023/01/06 03:38:34;;;;;;;;;0.00;0.00;;;;;11.82;77.19;101495.84;5020326;28;48494;-65
2023/01/06 03:41:13;;;;;;;;;0.00;0.00;;;;;11.79;77.12;101496.00;5038798;28;45414;-64
2023/01/06 03:44:04;;;;;;;;;0.00;0.00;;;;;11.90;77.07;101510.63;5020840;28;45309;-65
2023/01/06 03:46:37;;;;;;;;;0.00;0.00;;;;;11.86;76.84;101506.41;5038755;28;45375;-65
2023/01/06 03:49:08;;;;;;;;;0.00;0.00;;;;;11.74;77.00;101492.66;5037866;28;46167;-64
2023/01/06 03:51:39;;;;;;;;;0.00;0.00;;;;;11.89;76.95;101503.59;5020008;28;45448;-65
2023/01/06 03:54:07;;;;;;;;;2.00;0.00;;;;;11.93;76.76;101513.16;5019818;28;45491;-64
2023/01/06 03:57:03;;;;;;;;;0.00;0.00;;;;;11.92;77.04;101496.28;5038217;28;45564;-65
2023/01/06 03:59:33;;;;;;;;;0.00;0.00;;;;;11.93;77.24;101497.16;5020063;28;46366;-65
2023/01/06 04:01:59;;;;;;;;;0.33;0.00;;;;;11.92;76.87;101484.78;5019625;28;45973;-65
2023/01/06 04:04:25;;;;;;;;;1.00;1.00;;;;;11.84;77.49;101479.78;5036917;28;45422;-65
2023/01/06 04:06:50;;;;;;;;;0.00;0.00;;;;;11.84;77.57;101478.94;5037889;28;45478;-65
2023/01/06 04:09:15;;;;;;;;;0.00;0.00;;;;;11.87;77.68;101487.66;5038110;28;45392;-65
2023/01/06 04:14:25;;;;;;;;;0.00;0.00;;;;;11.89;77.96;101484.94;5017836;28;45477;-63
2023/01/06 04:16:50;;;;;;;;;0.00;0.00;;;;;11.82;77.74;101485.19;5017478;28;45612;-65
2023/01/06 04:19:16;;;;;;;;;0.00;0.00;;;;;11.82;77.95;101485.19;4999911;28;48197;-65
2023/01/06 04:21:41;;;;;;;;;0.00;0.00;;;;;11.86;77.85;101493.06;5017603;28;45388;-66
2023/01/06 04:24:07;;;;;;;;;0.00;0.00;;;;;11.86;77.79;101493.94;5017463;28;45314;-65
2023/01/06 04:26:32;;;;;;;;;0.00;0.00;;;;;11.76;78.01;101473.94;4999931;28;45582;-66
2023/01/06 04:29:01;;;;;;;;;0.00;0.00;;;;;11.76;77.87;101487.25;4999844;28;46805;-65
2023/01/06 04:31:27;;;;;;;;;0.00;0.00;;;;;11.86;77.66;101495.75;5017954;28;45248;-65
2023/01/06 04:33:53;;;;;;;;;0.00;0.00;;;;;11.90;77.67;101494.66;4999604;28;45428;-65
2023/01/06 04:36:19;;;;;;;;;1.00;0.00;;;;;11.82;77.51;101485.19;5018063;28;45548;-65
2023/01/06 04:38:44;;;;;;;;;0.00;0.00;;;;;11.77;77.80;101471.19;4999674;28;48205;-65
2023/01/06 04:41:10;;;;;;;;;0.00;0.00;;;;;11.91;77.52;101483.03;5017090;28;45335;-65
2023/01/06 04:43:35;;;;;;;;;0.00;0.00;;;;;11.92;77.61;101484.78;5017320;28;45769;-63
2023/01/06 04:46:01;;;;;;;;;1.00;1.00;;;;;11.90;77.73;101476.00;4999176;28;45475;-64
2023/01/06 04:48:26;;;;;;;;;0.00;0.00;;;;;11.80;77.56;101464.88;5016538;28;46074;-64
2023/01/06 04:51:09;;;;;;;;;0.00;0.00;;;;;11.92;77.68;101479.44;5017238;28;45898;-64
2023/01/06 04:53:40;;;;;;;;;0.00;0.00;;;;;11.94;77.65;101478.41;5016836;28;45500;-64
2023/01/06 04:56:09;;;;;;;;;0.67;0.00;;;;;11.89;77.72;101466.25;5017125;28;45391;-65
2023/01/06 04:58:35;;;;;;;;;0.00;0.00;;;;;11.90;77.96;101465.31;5016660;28;46353;-65
2023/01/06 05:01:02;;;;;;;;;0.00;0.00;;;;;11.92;78.08;101472.31;5016762;28;45426;-65
2023/01/06 05:03:27;;;;;;;;;0.00;0.00;;;;;11.87;77.95;101458.34;5017163;28;45352;-64
2023/01/06 05:05:53;;;;;;;;;0.00;0.00;;;;;11.82;78.26;101463.88;5017065;28;45392;-64
2023/01/06 05:08:18;;;;;;;;;1.33;0.00;;;;;11.85;77.84;101467.31;5016792;28;45316;-63
2023/01/06 05:10:44;;;;;;;;;0.00;0.00;;;;;11.85;78.30;101468.22;5016372;28;45342;-63
2023/01/06 05:13:09;;;;;;;;;0.00;0.00;;;;;11.82;78.62;101463.88;5033392;28;45353;-67
2023/01/06 05:15:34;;;;;;;;;0.00;0.00;;;;;11.84;78.18;101447.81;5036926;28;45343;-66
2023/01/06 05:18:00;;;;;;;;;0.00;0.00;;;;;11.84;78.26;101462.94;5036665;28;46236;-65
2023/01/06 05:20:25;;;;;;;;;0.00;0.00;;;;;11.87;78.41;101461.00;5036523;28;45376;-65
2023/01/06 05:22:51;;;;;;;;;0.00;0.00;;;;;11.88;78.30;101465.41;5037053;28;45213;-66
2023/01/06 05:25:16;;;;;;;;;0.00;0.00;;;;;11.99;78.26;101480.88;5019007;28;45332;-69
2023/01/06 05:27:41;;;;;;;;;1.33;0.00;;;;;11.96;77.94;101476.53;5037296;28;50130;-64
2023/01/06 05:30:07;;;;;;;;;0.00;0.00;;;;;11.94;78.33;101478.41;5038219;28;45414;-63
2023/01/06 05:32:32;;;;;;;;;0.00;0.00;;;;;11.96;77.96;101481.00;5038083;28;45303;-65
2023/01/06 05:34:58;;;;;;;;;0.00;0.00;;;;;11.89;78.64;101484.94;5038974;28;45355;-66
2023/01/06 05:37:23;;;;;;;;;0.00;0.00;;;;;11.81;78.90;101472.81;5038186;28;46290;-65
2023/01/06 05:39:48;;;;;;;;;0.00;0.00;;;;;11.86;78.62;101477.06;5037941;28;45257;-65
2023/01/06 05:42:16;;;;;;;;;0.00;0.00;;;;;11.90;78.80;101487.50;5036453;28;45288;-64
2023/01/06 05:44:41;;;;;;;;;0.00;0.00;;;;;11.90;79.07;101497.31;5036911;28;45377;-66
2023/01/06 05:47:06;;;;;;;;;1.33;0.00;;;;;11.94;78.84;101505.06;5036224;28;47174;-65
2023/01/06 05:49:32;;;;;;;;;0.00;0.00;;;;;11.93;78.86;101505.16;5036726;28;45324;-64
2023/01/06 05:51:57;;;;;;;;;0.33;0.33;;;;;11.86;78.63;101491.28;5018760;28;45305;-66
2023/01/06 05:54:23;;;;;;;;;0.00;0.00;;;;;11.94;78.76;101498.88;5036710;28;45534;-65
2023/01/06 05:56:48;;;;;;;;;0.33;0.00;;;;;11.90;78.77;101482.19;5036259;28;46271;-65
2023/01/06 05:59:13;;;;;;;;;0.00;0.00;;;;;12.02;78.08;101488.72;5036216;28;45261;-65
2023/01/06 06:01:39;;;;;;;;;0.33;0.00;;;;;12.05;78.10;101480.59;5036265;28;45466;-65
2023/01/06 06:04:04;;;;;;;;;1.00;0.00;;;;;12.05;78.26;101488.59;5036406;28;45496;-65
2023/01/06 06:06:29;;;;;;;;;0.00;0.00;;;;;12.03;78.13;101485.13;5018193;28;46453;-66
2023/01/06 06:08:56;;;;;;;;;2.00;1.00;;;;;12.03;77.83;101475.31;5036189;28;45335;-65
2023/01/06 06:11:21;;;;;;;;;0.00;0.00;;;;;12.01;78.33;101474.53;5016351;28;45631;-65
2023/01/06 06:13:47;;;;;;;;;0.00;0.00;;;;;12.10;77.92;101486.53;5015968;28;45535;-65
2023/01/06 06:16:14;;;;;;;;;0.00;0.00;;;;;12.06;78.05;101496.50;5015758;28;46730;-65
2023/01/06 06:18:44;;;;;;;;;0.00;0.00;;;;;12.03;78.13;101477.13;4998548;28;45452;-66
2023/01/06 06:21:14;;;;;;;;;0.00;0.00;;;;;12.10;77.70;101481.22;5016273;28;45467;-67
2023/01/06 06:23:41;;;;;;;;;2.00;0.00;;;;;12.12;77.89;101487.38;5015903;28;45376;-68
2023/01/06 06:26:08;;;;;;;;;0.00;0.00;;;;;12.14;77.79;101492.63;4998125;28;45368;-64
2023/01/06 06:28:34;;;;;;;;;0.00;0.00;;;;;12.18;77.51;101495.06;5015620;28;45375;-66
2023/01/06 06:31:13;;;;;;;;;0.00;0.00;;;;;12.19;77.43;101501.25;4998289;28;45358;-66
2023/01/06 06:33:40;;;;;;;;;2.00;1.00;;;;;12.22;77.67;101509.09;5016404;28;45348;-67
2023/01/06 06:36:11;;;;;;;;;1.00;0.00;;;;;12.16;77.44;101485.41;5015480;28;45420;-64
2023/01/06 06:38:37;;;;;;;;;0.00;0.00;;;;;12.23;77.01;101492.16;5015662;28;45383;-66
2023/01/06 06:41:03;;;;;;;;;0.00;0.00;;;;;12.21;76.96;101496.69;5015579;28;45305;-64
2023/01/06 06:43:29;;;;;;;;;0.00;0.00;;;;;12.20;77.27;101501.16;5015793;28;45642;-64
2023/01/06 06:45:55;;;;;;;;;0.33;0.33;;;;;12.20;77.39;101492.31;4997790;28;46761;-65
2023/01/06 06:48:20;;;;;;;;;0.00;0.00;;;;;12.21;77.10;101486.91;4997790;28;45416;-65
2023/01/06 06:50:54;;;;;;;;;0.00;0.00;;;;;12.26;77.12;101498.22;4997210;28;45397;-65
2023/01/06 06:53:19;;;;;;;;;0.00;0.00;;;;;12.20;77.05;101493.16;4998031;28;45415;-65
2023/01/06 06:55:45;;;;;;;;;0.67;0.67;;;;;12.27;76.59;101499.94;5018693;28;46238;-65
2023/01/06 06:58:13;;;;;;;;;1.00;1.00;;;;;12.30;76.73;101507.78;5017830;28;45391;-63
2023/01/06 07:00:38;;;;;;;;;0.00;0.00;;;;;12.36;76.76;101507.47;5019079;28;45387;-66
2023/01/06 07:03:04;;;;;;;;;0.00;0.00;;;;;12.36;76.61;101509.28;5001413;28;45373;-65
2023/01/06 07:05:30;;;;;;;;;0.67;0.67;;;;;12.29;76.97;101511.41;5018932;28;45269;-65
2023/01/06 07:07:55;;;;;;;;;0.00;0.00;;;;;12.33;77.04;101512.97;5000752;28;45433;-67
2023/01/06 07:10:20;;;;;;;;;0.00;0.00;;;;;12.35;76.97;101513.75;5018899;28;45308;-65
2023/01/06 07:12:46;;;;;;;;;1.00;1.00;;;;;12.35;76.46;101508.41;5011155;28;45223;-63
2023/01/06 07:15:11;;;;;;;;;0.00;0.00;;;;;12.39;77.14;101517.16;5017150;28;46160;-64
2023/01/06 07:17:38;;;;;;;;;0.67;0.67;;;;;12.46;76.58;101528.38;5017399;28;45343;-65
2023/01/06 07:20:04;;;;;;;;;2.00;0.00;;;;;12.38;76.49;101526.09;5018639;28;45245;-65
2023/01/06 07:22:30;;;;;;;;;2.00;1.00;;;;;12.41;76.96;101528.63;5018896;28;45455;-66
2023/01/06 07:24:55;;;;;;;;;0.33;0.00;;;;;12.42;76.83;101521.47;5018653;28;45407;-66
2023/01/06 07:27:21;;;;;;;;;0.00;0.00;;;;;12.36;76.61;101523.47;5018161;28;45478;-66
2023/01/06 07:29:46;;;;;;;;;0.67;0.67;;;;;12.37;76.61;101511.03;5018632;28;45327;-65
2023/01/06 07:32:12;;;;;;;;;0.00;0.00;;;;;12.39;76.74;101511.81;5018499;28;45375;-65
2023/01/06 07:34:37;;;;;;;;;0.00;0.00;;;;;12.48;76.80;101515.81;5018181;28;45387;-69
2023/01/06 07:37:03;;;;;;;;;0.67;0.67;;;;;12.40;76.72;101493.06;5016701;28;45498;-66
2023/01/06 07:39:28;;;;;;;;;2.00;0.67;;;;;12.56;76.46;101519.84;5018931;28;45344;-65
2023/01/06 07:41:53;;;;;;;;;0.50;0.50;;;;;12.55;76.67;101517.25;5017090;28;45388;-66
2023/01/06 07:44:19;;;;;;;;;0.00;0.00;;;;;12.51;76.79;101511.22;5018092;28;45371;-64
2023/01/06 07:46:44;;;;;;;;;0.00;0.00;;;;;12.54;76.81;101510.19;5018055;28;45471;-65
2023/01/06 07:49:10;;;;;;;;;1.00;1.00;;;;;12.60;76.48;101526.75;5018003;28;45303;-66
2023/01/06 07:51:36;;;;;;;;;0.00;0.00;;;;;12.62;76.18;101529.34;5018163;28;45614;-64
2023/01/06 07:54:01;;;;;;;;;2.33;0.67;;;;;12.57;76.60;101521.56;5018005;28;46064;-67
2023/01/06 07:56:26;;;;;;;;;1.00;1.00;;;;;12.62;76.97;101529.34;5017762;28;45359;-67
2023/01/06 07:58:53;;;;;;;;;1.00;1.00;;;;;12.57;76.42;101534.91;5017893;28;45407;-67
2023/01/06 08:01:19;;;;;;;;;1.00;1.00;;;;;12.57;76.73;101528.72;5017443;28;45254;-71
2023/01/06 08:03:44;;;;;;;;;10.00;2.00;;;;;12.47;76.81;101508.75;5018103;28;45529;-67
2023/01/06 08:06:13;;;;;;;;;0.67;0.67;;;;;12.61;76.72;101528.47;5017283;28;45447;-73
2023/01/06 08:08:41;;;;;;;;;0.00;0.00;;;;;12.59;76.96;101532.19;5018077;28;45571;-64
2023/01/06 08:11:10;;;;;;;;;2.00;2.00;;;;;12.55;76.46;101517.25;5017901;28;45506;-65
2023/01/06 08:13:36;;;;;;;;;2.00;1.00;;;;;12.58;76.30;101517.97;5017590;28;47544;-68
2023/01/06 08:16:06;;;;;;;;;2.67;0.67;;;;;12.62;76.43;101530.22;5017514;28;45592;-70
2023/01/06 08:18:35;;;;;;;;;2.00;1.00;;;;;12.56;76.72;101524.31;5018139;28;45201;-70
2023/01/06 08:21:08;;;;;;;;;1.00;1.00;;;;;12.58;76.56;101527.78;5018099;28;45516;-66
2023/01/06 08:23:37;;;;;;;;;1.00;1.00;;;;;12.61;76.29;101532.97;5016989;28;46172;-64
2023/01/06 08:26:05;;;;;;;;;1.33;1.33;;;;;12.62;76.16;101529.34;5017155;28;45384;-65
2023/01/06 08:28:31;;;;;;;;;4.00;2.00;;;;;12.53;76.67;101519.16;5017667;28;45325;-64
2023/01/06 08:30:56;;;;;;;;;1.00;1.00;;;;;12.61;76.12;101538.28;5017753;28;45503;-66
2023/01/06 08:33:24;;;;;;;;;1.00;1.00;;;;;12.66;76.22;101541.63;5016774;28;45416;-65
2023/01/06 08:35:52;;;;;;;;;1.00;1.00;;;;;12.64;76.26;101533.69;5015761;28;45561;-65
2023/01/06 08:38:17;;;;;;;;;2.33;2.33;;;;;12.59;76.47;101529.50;5017061;28;45360;-65
2023/01/06 08:40:43;;;;;;;;;2.33;2.33;;;;;12.63;76.47;101537.31;5017412;28;45484;-60
2023/01/06 08:43:08;;;;;;;;;2.00;2.00;;;;;12.65;76.38;101534.56;5017091;28;46062;-63
2023/01/06 08:45:38;;;;;;;;;0.00;0.00;;;;;12.68;76.47;101537.06;5017190;28;45323;-66
2023/01/06 08:48:04;;;;;;;;;3.00;3.00;;;;;12.73;76.30;101536.81;5017674;28;45408;-64
2023/01/06 08:50:29;;;;;;;;;1.00;1.00;;;;;12.70;76.18;101537.84;5016847;28;45305;-65
2023/01/06 08:52:55;;;;;;;;;1.67;1.67;;;;;12.67;75.96;101535.34;5017594;28;46284;-66
2023/01/06 08:55:20;;;;;;;;;2.67;2.33;;;;;12.74;76.24;101539.41;5017807;28;45388;-63
2023/01/06 08:57:46;;;;;;;;;2.67;2.67;;;;;12.71;76.04;101531.56;5017013;28;45419;-65
2023/01/06 09:00:12;;;;;;;;;2.67;1.00;;;;;12.76;76.10;101548.22;5016309;28;45249;-68
2023/01/06 09:02:37;;;;;;;;;1.00;1.00;;;;;12.64;76.31;101532.84;5016256;28;47060;-66
2023/01/06 09:05:04;;;;;;;;;2.00;2.00;;;;;12.62;75.76;101529.34;5016581;28;45410;-66
2023/01/06 09:07:29;;;;;;;;;3.00;2.00;;;;;12.68;76.06;101540.59;5017388;28;45367;-65
2023/01/06 09:09:55;;;;;;;;;3.00;2.00;;;;;12.46;76.21;101501.69;5015859;28;45321;-66
2023/01/06 09:12:20;;;;;;;;;3.00;1.00;;;;;12.74;75.69;101534.06;5016207;28;45482;-65
2023/01/06 09:14:45;;;;;;;;;1.00;1.00;;;;;12.66;76.16;101530.94;5016543;28;45204;-63
2023/01/06 09:17:11;;;;;;;;;3.00;2.00;;;;;12.70;76.29;101537.84;5016273;28;45549;-67
2023/01/06 09:19:36;;;;;;;;;2.67;2.00;;;;;12.70;76.22;101544.06;5017124;28;45482;-64
2023/01/06 09:22:03;;;;;;;;;1.00;1.00;;;;;12.72;76.31;101545.78;5016808;28;46062;-63
2023/01/06 09:24:28;;;;;;;;;2.00;2.00;;;;;12.74;76.83;101550.09;5016759;28;45348;-63
2023/01/06 09:26:54;;;;;;;;;3.00;1.00;;;;;12.73;76.97;101548.38;5015384;28;45380;-65
2023/01/06 09:29:20;;;;;;;;;2.00;2.00;;;;;12.70;77.01;101549.38;5016910;28;45665;-62
2023/01/06 09:31:45;;;;;;;;;4.00;2.00;;;;;12.68;77.25;101545.06;5016227;28;45383;-62
2023/01/06 09:34:11;;;;;;;;;1.33;1.33;;;;;12.69;77.25;101546.78;5017228;28;45441;-64
2023/01/06 09:36:37;;;;;;;;;1.00;0.00;;;;;12.67;77.52;101538.00;5015888;28;45400;-63
2023/01/06 09:39:02;;;;;;;;;2.00;2.00;;;;;12.71;76.75;101534.25;5017566;28;45312;-64
2023/01/06 09:42:05;;;;;;;;;1.00;0.00;;;;;12.79;77.03;101542.75;5015017;28;45374;-60
2023/01/06 09:44:35;;;;;;;;;2.00;2.00;;;;;12.77;76.52;101541.94;5015231;28;45460;-61
2023/01/06 09:47:02;;;;;;;;;2.00;2.00;;;;;12.82;76.50;101541.72;5016740;28;45205;-62
2023/01/06 09:49:42;;;;;;;;;1.00;1.00;;;;;12.83;76.37;101544.31;5015207;28;45833;-59
2023/01/06 09:52:23;;;;;;;;;2.33;2.00;;;;;12.83;76.47;101552.31;5016169;28;46086;-59
2023/01/06 09:55:06;;;;;;;;;2.00;0.00;;;;;12.87;76.40;101551.19;5015894;28;45206;-65
2023/01/06 09:58:04;;;;;;;;;4.00;2.00;;;;;12.86;76.37;101546.81;5016842;28;45242;-60
2023/01/06 10:00:29;;;;;;;;;2.67;2.00;;;;;12.90;76.23;101556.41;5010811;28;45447;-59
2023/01/06 10:02:56;;;;;;;;;2.00;2.00;;;;;12.87;76.15;101567.22;5016293;28;45298;-60
2023/01/06 10:05:33;;;;;;;;;1.00;1.00;;;;;12.94;76.37;101552.63;5016585;28;45431;-61
2023/01/06 10:08:13;;;;;;;;;1.00;1.00;;;;;12.99;76.21;101561.25;5016425;28;45257;-66
2023/01/06 10:11:10;;;;;;;;;2.00;2.00;;;;;12.99;76.38;101568.41;5016453;28;45694;-57
2023/01/06 10:13:56;;;;;;;;;2.00;2.00;;;;;12.96;76.18;101564.09;5016839;28;46165;-62
2023/01/06 10:16:54;;;;;;;;;2.00;2.00;;;;;12.98;76.21;101567.56;5015323;28;45509;-64
2023/01/06 10:19:43;;;;;;;;;1.67;1.67;;;;;13.08;75.99;101567.09;5015077;28;45450;-63
2023/01/06 10:22:27;;;;;;;;;2.33;2.33;;;;;13.09;75.98;101566.16;5016766;28;45404;-64
2023/01/06 10:25:05;;;;;;;;;3.00;3.00;;;;;12.98;75.57;101558.69;5015858;28;45278;-64
2023/01/06 10:27:39;;;;;;;;;4.00;2.67;;;;;13.04;75.71;101568.19;5014137;28;45507;-64
2023/01/06 10:30:16;;;;;;;;;2.67;1.00;;;;;13.02;76.06;101570.06;5024029;28;45473;-67
2023/01/06 10:32:47;;;;;;;;;2.67;2.00;;;;;12.90;76.49;101556.41;5019973;28;45448;-67
2023/01/06 10:35:15;;;;;;;;;3.00;2.00;;;;;13.04;76.07;101568.19;5019286;28;45312;-68
2023/01/06 10:37:44;;;;;;;;;3.00;2.67;;;;;12.94;76.07;101551.78;5018285;28;45466;-65
2023/01/06 10:40:24;;;;;;;;;2.00;2.00;;;;;13.06;75.97;101567.19;5020416;28;45454;-66
2023/01/06 10:43:13;;;;;;;;;3.00;3.00;;;;;13.08;75.87;101565.28;5019655;28;45211;-65
2023/01/06 10:45:41;;;;;;;;;5.00;3.00;;;;;12.98;76.40;101553.34;5019280;28;45729;-64
2023/01/06 10:48:22;;;;;;;;;3.00;3.00;;;;;13.03;76.47;101558.47;5018458;28;45340;-62
2023/01/06 10:50:48;;;;;;;;;3.00;3.00;;;;;13.09;75.98;101560.81;5018705;28;45368;-59
2023/01/06 10:53:14;;;;;;;;;3.00;2.00;;;;;13.14;76.08;101550.75;5019458;28;45466;-63
2023/01/06 10:56:00;;;;;;;;;3.33;3.00;;;;;13.17;75.76;101550.59;5019859;28;46048;-65
2023/01/06 10:58:52;;;;;;;;;3.00;3.00;;;;;13.25;75.45;101556.44;5019607;28;45248;-66
2023/01/06 11:01:24;;;;;;;;;2.00;2.00;;;;;13.30;75.24;101546.38;5019825;28;45453;-63
2023/01/06 11:04:08;;;;;;;;;2.00;2.00;;;;;13.31;75.08;101534.75;5018438;28;45630;-67
2023/01/06 11:06:35;;;;;;;;;2.67;2.67;;;;;13.29;75.07;101520.63;5018529;28;45362;-65
2023/01/06 11:09:21;;;;;;;;;4.00;2.00;;;;;13.33;75.22;101527.53;5017147;28;45332;-64
2023/01/06 11:11:52;;;;;;;;;3.00;3.00;;;;;13.40;74.55;101546.75;5024360;28;45315;-64
2023/01/06 11:14:21;;;;;;;;;2.33;2.33;;;;;13.32;75.02;101541.81;5022370;28;45280;-65
2023/01/06 11:17:00;;;;;;;;;4.33;3.33;;;;;13.33;75.11;101537.34;5021048;28;45533;-62
2023/01/06 11:19:45;;;;;;;;;4.00;4.00;;;;;13.32;75.36;101525.78;5038946;28;45492;-64
2023/01/06 11:22:33;;;;;;;;;5.00;3.00;;;;;13.35;75.45;101524.75;5038490;28;45422;-63
2023/01/06 11:24:59;;;;;;;;;4.00;4.00;;;;;13.37;75.26;101517.53;5038293;28;45592;-64
2023/01/06 11:27:25;;;;;;;;;4.00;4.00;;;;;13.48;75.02;101516.00;5037211;28;45278;-64
2023/01/06 11:29:50;;;;;;;;;3.33;3.33;;;;;13.39;75.02;101505.81;5020376;28;45584;-65
2023/01/06 11:32:22;;;;;;;;;3.33;3.33;;;;;13.50;75.21;101515.94;5037984;28;45462;-64
2023/01/06 11:34:54;;;;;;;;;4.00;4.00;;;;;13.48;74.91;101516.00;5040010;28;45407;-65
2023/01/06 11:37:36;;;;;;;;;5.33;5.33;;;;;13.46;74.80;101496.53;5038565;28;46066;-64
2023/01/06 11:40:15;;;;;;;;;3.33;3.33;;;;;13.53;75.25;101503.25;5036676;28;45360;-62
2023/01/06 11:42:41;;;;;;;;;4.67;4.67;;;;;13.57;74.63;101504.84;5038588;28;45328;-64